Time;durP1;ratioP1;P1;durP2;ratioP2;P2;SDS_P1;SDS_P2;PMS_P1;PMS_P2;Temp;Humidity;BMP_temperature;BMP_pressure;BME280_temperature;BME280_humidity;BME280_pressure;Samples;Min_cycle;Max_cycle;Signal;HPM_P1;HPM_P2
2023/11/12 00:01:03;;;;;;;31.63;18.50;;;6.80;99.90;;;;;;4919333;29;20849;-65
2023/11/12 00:03:32;;;;;;;28.57;17.23;;;6.80;99.90;;;;;;4920352;28;20498;-64
2023/11/12 00:06:00;;;;;;;29.27;15.90;;;6.80;99.90;;;;;;4916893;29;20489;-64
2023/11/12 00:08:28;;;;;;;26.50;17.10;;;6.80;99.90;;;;;;4918399;29;20493;-64
2023/11/12 00:10:57;;;;;;;22.00;14.80;;;6.80;99.90;;;;;;4919902;29;20614;-64
2023/11/12 00:13:26;;;;;;;23.50;14.13;;;6.80;99.90;;;;;;4919252;28;20495;-64
2023/11/12 00:15:55;;;;;;;23.57;15.13;;;6.80;99.90;;;;;;4919931;29;20573;-65
2023/11/12 00:18:24;;;;;;;22.03;13.80;;;6.80;99.90;;;;;;4917951;29;20500;-65
2023/11/12 00:20:53;;;;;;;20.70;12.87;;;6.80;99.90;;;;;;4916493;29;20560;-64
2023/11/12 00:23:23;;;;;;;18.43;12.80;;;6.80;99.90;;;;;;4919652;28;20483;-65
2023/11/12 00:25:53;;;;;;;21.37;13.93;;;6.80;99.90;;;;;;4918510;29;20476;-63
2023/11/12 00:28:22;;;;;;;19.27;13.47;;;6.80;99.90;;;;;;4916615;29;20484;-64
2023/11/12 00:30:50;;;;;;;24.27;14.03;;;6.80;99.90;;;;;;4918449;29;20491;-64
2023/11/12 00:33:19;;;;;;;19.37;12.00;;;6.80;99.90;;;;;;4917209;28;21081;-65
2023/11/12 00:35:47;;;;;;;18.90;12.10;;;6.80;99.90;;;;;;4918215;29;21099;-64
2023/11/12 00:38:16;;;;;;;17.43;11.83;;;6.80;99.90;;;;;;4919373;29;20499;-65
2023/11/12 00:40:46;;;;;;;17.67;11.60;;;6.80;99.90;;;;;;4919784;29;20483;-65
2023/11/12 00:43:15;;;;;;;18.90;11.90;;;6.80;99.90;;;;;;4917996;28;20503;-65
2023/11/12 00:45:43;;;;;;;18.40;11.73;;;6.80;99.90;;;;;;4918301;29;20559;-65
2023/11/12 00:48:11;;;;;;;18.97;11.90;;;6.80;99.90;;;;;;4920717;29;20942;-65
2023/11/12 00:50:39;;;;;;;17.00;11.30;;;6.80;99.90;;;;;;4919708;29;20476;-64
2023/11/12 00:53:07;;;;;;;16.20;11.30;;;6.80;99.90;;;;;;4918258;28;20498;-64
2023/11/12 00:55:37;;;;;;;21.07;12.00;;;6.80;99.90;;;;;;4919801;29;21007;-65
2023/11/12 00:58:05;;;;;;;16.37;10.90;;;6.80;99.90;;;;;;4919760;29;20530;-64
2023/11/12 01:00:32;;;;;;;16.40;10.93;;;6.80;99.90;;;;;;4918670;29;20570;-65
2023/11/12 01:03:02;;;;;;;15.10;10.13;;;6.80;99.90;;;;;;4912711;28;20484;-65
2023/11/12 01:05:30;;;;;;;13.63;9.70;;;6.80;99.90;;;;;;4919308;29;20492;-64
2023/11/12 01:07:58;;;;;;;13.67;10.30;;;6.80;99.90;;;;;;4917805;29;20583;-65
2023/11/12 01:10:27;;;;;;;13.53;9.23;;;6.80;99.90;;;;;;4915317;29;20559;-65
2023/11/12 01:12:56;;;;;;;15.53;10.80;;;6.80;99.90;;;;;;4918600;28;20839;-64
2023/11/12 01:15:26;;;;;;;15.33;9.90;;;6.80;99.90;;;;;;4920094;29;20500;-65
2023/11/12 01:17:54;;;;;;;19.20;10.97;;;6.70;99.90;;;;;;4917708;29;20567;-64
2023/11/12 01:20:22;;;;;;;15.30;11.13;;;6.80;99.90;;;;;;4918073;29;20508;-65
2023/11/12 01:22:50;;;;;;;15.60;10.20;;;6.80;99.90;;;;;;4912267;28;20484;-65
2023/11/12 01:25:19;;;;;;;17.23;11.30;;;6.80;99.90;;;;;;4917772;29;20519;-65
2023/11/12 01:27:46;;;;;;;17.70;11.10;;;6.80;99.90;;;;;;4917777;29;21078;-65
2023/11/12 01:30:17;;;;;;;16.37;11.27;;;6.80;99.90;;;;;;4916426;29;21155;-65
2023/11/12 01:32:45;;;;;;;18.50;11.93;;;6.80;99.90;;;;;;4918064;29;20480;-65
2023/11/12 01:35:14;;;;;;;17.20;11.07;;;6.80;99.90;;;;;;4919046;29;20810;-64
2023/11/12 01:37:44;;;;;;;17.00;11.73;;;6.80;99.90;;;;;;4915692;29;20564;-65
2023/11/12 01:40:14;;;;;;;16.33;10.87;;;6.80;99.90;;;;;;4919303;29;21075;-63
2023/11/12 01:42:42;;;;;;;15.90;11.47;;;6.80;99.90;;;;;;4916787;29;20479;-64
2023/11/12 01:45:10;;;;;;;17.63;11.73;;;6.90;99.90;;;;;;4919347;28;20566;-60
2023/11/12 01:47:44;;;;;;;16.17;10.90;;;6.90;99.90;;;;;;4917227;29;20476;-63
2023/11/12 01:50:13;;;;;;;18.40;11.00;;;6.90;99.90;;;;;;4919392;29;20468;-65
2023/11/12 01:52:43;;;;;;;16.37;10.50;;;6.90;99.90;;;;;;4917967;29;20468;-63
2023/11/12 01:55:13;;;;;;;15.63;10.50;;;6.90;99.90;;;;;;4915629;28;20579;-65
2023/11/12 01:57:43;;;;;;;16.90;11.10;;;6.90;99.90;;;;;;4915836;29;20921;-62
2023/11/12 02:00:15;;;;;;;18.17;11.37;;;6.90;99.90;;;;;;4919427;29;20575;-64
2023/11/12 02:02:46;;;;;;;18.37;11.37;;;6.90;99.90;;;;;;4917002;29;20476;-64
2023/11/12 02:05:15;;;;;;;15.93;11.03;;;6.90;99.90;;;;;;4917708;29;20971;-63
2023/11/12 02:07:45;;;;;;;16.67;10.33;;;6.90;99.90;;;;;;4916962;29;20481;-64
2023/11/12 02:10:16;;;;;;;18.30;10.30;;;6.90;99.90;;;;;;4918934;29;20622;-64
2023/11/12 02:12:45;;;;;;;17.00;11.00;;;6.90;99.90;;;;;;4918568;29;20551;-64
2023/11/12 02:15:14;;;;;;;16.00;9.87;;;6.90;99.90;;;;;;4915388;28;20519;-63
2023/11/12 02:17:45;;;;;;;14.90;10.13;;;6.90;99.90;;;;;;4917851;29;20481;-64
2023/11/12 02:20:15;;;;;;;15.20;9.90;;;6.90;99.90;;;;;;4919488;29;20496;-63
2023/11/12 02:22:43;;;;;;;18.10;11.50;;;6.90;99.90;;;;;;4917896;29;20923;-64
2023/11/12 02:25:14;;;;;;;18.27;10.97;;;6.90;99.90;;;;;;4915472;28;20500;-64
2023/11/12 02:27:44;;;;;;;15.10;10.37;;;6.90;99.90;;;;;;4917666;29;20475;-63
2023/11/12 02:30:13;;;;;;;16.30;10.63;;;6.90;99.90;;;;;;4918099;29;20482;-64
2023/11/12 02:32:41;;;;;;;14.90;9.57;;;6.90;99.90;;;;;;4915931;29;20507;-64
2023/11/12 02:35:10;;;;;;;18.40;10.20;;;7.00;99.90;;;;;;4919869;28;20492;-64
2023/11/12 02:37:38;;;;;;;17.17;11.20;;;7.00;99.90;;;;;;4922034;29;20640;-63
2023/11/12 02:40:07;;;;;;;15.63;9.70;;;7.00;99.90;;;;;;4922331;29;20585;-64
2023/11/12 02:42:37;;;;;;;15.90;9.93;;;7.00;99.90;;;;;;4922360;29;20482;-63
2023/11/12 02:45:06;;;;;;;18.87;11.10;;;7.00;99.90;;;;;;4923147;28;20491;-64
2023/11/12 02:47:35;;;;;;;17.80;10.20;;;7.00;99.90;;;;;;4921281;29;20503;-63
2023/11/12 02:50:24;;;;;;;17.27;10.23;;;7.00;99.90;;;;;;4921494;29;20472;-63
2023/11/12 02:52:52;;;;;;;19.50;11.77;;;7.00;99.90;;;;;;4915044;28;20533;-63
2023/11/12 02:55:21;;;;;;;18.60;11.37;;;7.00;99.90;;;;;;4922564;29;20508;-64
2023/11/12 02:57:50;;;;;;;19.93;10.53;;;7.00;99.90;;;;;;4919707;29;20938;-64
2023/11/12 03:00:18;;;;;;;19.20;11.40;;;7.00;99.90;;;;;;4920091;29;20528;-63
2023/11/12 03:02:47;;;;;;;18.00;10.07;;;7.00;99.90;;;;;;4919726;29;20488;-63
2023/11/12 03:05:15;;;;;;;19.00;10.17;;;7.00;99.90;;;;;;4920769;28;20483;-64
2023/11/12 03:07:43;;;;;;;14.50;10.30;;;7.00;99.90;;;;;;4921476;29;20509;-64
2023/11/12 03:10:11;;;;;;;16.50;11.20;;;7.00;99.90;;;;;;4921269;29;20507;-63
2023/11/12 03:12:39;;;;;;;20.60;10.63;;;7.00;99.90;;;;;;4915996;29;20960;-64
2023/11/12 03:15:11;;;;;;;17.50;10.80;;;7.00;99.90;;;;;;4920922;28;20483;-64
2023/11/12 03:17:39;;;;;;;18.97;11.33;;;7.00;99.90;;;;;;4918231;29;20559;-63
2023/11/12 03:20:09;;;;;;;19.33;11.17;;;7.00;99.90;;;;;;4920058;29;20504;-64
2023/11/12 03:22:38;;;;;;;16.50;9.87;;;7.00;99.90;;;;;;4918620;29;20586;-63
2023/11/12 03:25:08;;;;;;;18.07;11.50;;;7.00;99.90;;;;;;4915500;28;20504;-64
2023/11/12 03:27:36;;;;;;;18.67;11.40;;;7.00;99.90;;;;;;4919636;29;20993;-64
2023/11/12 03:30:05;;;;;;;19.10;10.73;;;7.00;99.90;;;;;;4921927;29;20849;-64
2023/11/12 03:32:34;;;;;;;18.30;11.60;;;7.00;99.90;;;;;;4917321;29;20480;-64
2023/11/12 03:35:03;;;;;;;20.17;11.87;;;7.00;99.90;;;;;;4920517;28;20487;-63
2023/11/12 03:37:31;;;;;;;16.93;11.30;;;7.00;99.90;;;;;;4918639;29;21054;-64
2023/11/12 03:39:59;;;;;;;21.53;12.70;;;7.00;99.90;;;;;;4920152;29;20590;-64
2023/11/12 03:42:27;;;;;;;21.27;12.67;;;7.00;99.90;;;;;;4920982;29;20543;-64
2023/11/12 03:44:56;;;;;;;18.73;11.43;;;7.00;99.90;;;;;;4918539;28;20544;-64
2023/11/12 03:47:25;;;;;;;19.27;12.57;;;7.00;99.90;;;;;;4915357;29;20582;-63
2023/11/12 03:49:54;;;;;;;23.97;13.27;;;7.00;99.90;;;;;;4921383;29;20479;-63
2023/11/12 03:52:22;;;;;;;21.13;12.13;;;7.10;99.90;;;;;;4918750;29;20504;-63
2023/11/12 03:54:50;;;;;;;16.53;11.30;;;7.10;99.90;;;;;;4920427;28;20572;-64
2023/11/12 03:57:18;;;;;;;22.60;13.73;;;7.10;99.90;;;;;;4921420;29;20931;-64
2023/11/12 03:59:51;;;;;;;19.27;11.53;;;7.10;99.90;;;;;;4919325;29;20568;-64
2023/11/12 04:02:20;;;;;;;19.73;11.57;;;7.10;99.90;;;;;;4921226;29;20889;-64
2023/11/12 04:04:49;;;;;;;23.13;12.67;;;7.10;99.90;;;;;;4917430;28;20499;-64
2023/11/12 04:07:18;;;;;;;22.77;12.13;;;7.10;99.90;;;;;;4918968;29;20481;-63
2023/11/12 04:09:46;;;;;;;22.20;12.67;;;7.10;99.90;;;;;;4919927;29;20567;-64
2023/11/12 04:12:14;;;;;;;22.40;11.73;;;7.10;99.90;;;;;;4921726;29;20543;-64
2023/11/12 04:14:42;;;;;;;19.47;11.60;;;7.00;99.90;;;;;;4919441;28;20489;-63
2023/11/12 04:17:10;;;;;;;24.17;12.87;;;7.00;99.90;;;;;;4919747;29;20487;-64
2023/11/12 04:19:39;;;;;;;23.87;13.43;;;7.10;99.90;;;;;;4921117;29;20568;-64
2023/11/12 04:22:07;;;;;;;22.40;13.40;;;7.10;99.90;;;;;;4919887;29;20495;-64
2023/11/12 04:24:36;;;;;;;22.77;12.60;;;7.10;99.90;;;;;;4916256;28;20485;-64
2023/11/12 04:27:06;;;;;;;25.53;14.10;;;7.10;99.90;;;;;;4918749;29;20947;-64
2023/11/12 04:29:34;;;;;;;25.97;13.83;;;7.10;99.90;;;;;;4921928;29;20479;-64
2023/11/12 04:32:03;;;;;;;24.57;13.17;;;7.10;99.90;;;;;;4919296;29;20582;-62
2023/11/12 04:34:31;;;;;;;22.10;13.20;;;7.10;99.90;;;;;;4912259;28;20499;-64
2023/11/12 04:37:00;;;;;;;23.90;13.70;;;7.10;99.90;;;;;;4917717;29;20519;-64
2023/11/12 04:39:28;;;;;;;28.47;13.83;;;7.10;99.90;;;;;;4912630;29;20559;-63
2023/11/12 04:41:57;;;;;;;28.00;14.60;;;7.10;99.90;;;;;;4915782;29;20499;-64
2023/11/12 04:44:26;;;;;;;25.53;14.40;;;7.10;99.90;;;;;;4917095;28;20670;-63
2023/11/12 04:46:54;;;;;;;27.93;14.03;;;7.10;99.90;;;;;;4914888;29;20472;-62
2023/11/12 04:49:24;;;;;;;25.20;13.50;;;7.10;99.90;;;;;;4918395;29;20506;-63
2023/11/12 04:51:53;;;;;;;22.67;13.37;;;7.10;99.90;;;;;;4917888;29;20492;-63
2023/11/12 04:54:21;;;;;;;26.73;14.20;;;7.10;99.90;;;;;;4920006;28;20483;-63
2023/11/12 04:56:49;;;;;;;23.77;14.13;;;7.20;99.90;;;;;;4918411;29;20966;-63
2023/11/12 04:59:19;;;;;;;28.80;14.50;;;7.20;99.90;;;;;;4919193;29;20472;-63
2023/11/12 05:01:47;;;;;;;24.33;14.90;;;7.20;99.90;;;;;;4916717;29;20499;-65
2023/11/12 05:04:16;;;;;;;24.97;14.10;;;7.20;99.90;;;;;;4918987;28;21155;-65
2023/11/12 05:06:44;;;;;;;28.43;14.83;;;7.20;99.90;;;;;;4917704;29;20566;-65
2023/11/12 05:09:12;;;;;;;27.73;14.70;;;7.20;99.90;;;;;;4915398;29;20487;-65
2023/11/12 05:11:40;;;;;;;20.90;12.50;;;7.20;99.90;;;;;;4917461;29;20491;-65
2023/11/12 05:14:09;;;;;;;25.47;14.40;;;7.20;99.90;;;;;;4918337;28;20542;-65
2023/11/12 05:16:42;;;;;;;21.80;13.40;;;7.30;99.90;;;;;;4917971;29;20472;-64
2023/11/12 05:19:10;;;;;;;22.97;13.80;;;7.30;99.90;;;;;;4917200;29;20536;-64
2023/11/12 05:21:44;;;;;;;20.60;13.00;;;7.30;99.90;;;;;;4919546;29;20510;-64
2023/11/12 05:24:12;;;;;;;18.67;13.07;;;7.30;99.90;;;;;;4917396;28;20507;-65
2023/11/12 05:26:40;;;;;;;21.00;13.20;;;7.30;99.90;;;;;;4918165;29;20534;-64
2023/11/12 05:29:09;;;;;;;19.20;12.10;;;7.30;99.90;;;;;;4920238;29;20579;-64
2023/11/12 05:31:37;;;;;;;19.90;12.70;;;7.30;99.90;;;;;;4918187;29;21089;-65
2023/11/12 05:34:06;;;;;;;21.17;12.07;;;7.30;99.90;;;;;;4915153;28;20523;-65
2023/11/12 05:36:34;;;;;;;20.70;12.90;;;7.30;99.90;;;;;;4918408;29;20509;-64
2023/11/12 05:39:02;;;;;;;17.40;11.50;;;7.40;99.90;;;;;;4916524;29;20476;-64
2023/11/12 05:41:30;;;;;;;21.07;12.70;;;7.40;99.90;;;;;;4917846;29;20492;-64
2023/11/12 05:43:58;;;;;;;18.07;12.50;;;7.40;99.90;;;;;;4919838;28;20492;-64
2023/11/12 05:46:28;;;;;;;17.60;11.97;;;7.40;99.90;;;;;;4918039;29;20555;-64
2023/11/12 05:48:56;;;;;;;15.23;11.27;;;7.40;99.90;;;;;;4914872;29;20513;-64
2023/11/12 05:51:25;;;;;;;14.73;10.57;;;7.40;99.90;;;;;;4919379;29;21021;-63
2023/11/12 05:53:53;;;;;;;15.20;11.00;;;7.50;99.90;;;;;;4913716;28;20496;-64
2023/11/12 05:56:21;;;;;;;13.40;10.70;;;7.50;99.90;;;;;;4919077;29;20575;-64
2023/11/12 05:58:49;;;;;;;14.77;11.37;;;7.50;99.90;;;;;;4919155;29;20667;-64
2023/11/12 06:01:18;;;;;;;11.43;10.23;;;7.50;99.90;;;;;;4919001;29;20552;-63
2023/11/12 06:03:46;;;;;;;11.10;9.90;;;7.50;99.90;;;;;;4917003;28;20848;-63
2023/11/12 06:06:15;;;;;;;11.20;9.80;;;7.50;99.90;;;;;;4919562;29;20567;-63
2023/11/12 06:08:45;;;;;;;11.23;10.03;;;7.50;99.90;;;;;;4919988;29;20475;-64
2023/11/12 06:11:13;;;;;;;12.03;10.13;;;7.60;99.90;;;;;;4922579;29;20566;-64
2023/11/12 06:13:41;;;;;;;14.10;11.90;;;7.50;99.90;;;;;;4923035;28;20575;-64
2023/11/12 06:16:09;;;;;;;13.20;11.83;;;7.50;99.90;;;;;;4922095;29;20479;-64
2023/11/12 06:18:38;;;;;;;13.87;11.47;;;7.50;99.90;;;;;;4924395;29;20559;-62
2023/11/12 06:21:06;;;;;;;12.70;10.70;;;7.60;99.90;;;;;;4922886;29;21016;-64
2023/11/12 06:23:34;;;;;;;13.47;11.40;;;7.60;99.90;;;;;;4920672;28;20495;-62
2023/11/12 06:26:04;;;;;;;13.30;11.37;;;7.60;99.90;;;;;;4921784;29;20499;-64
2023/11/12 06:28:32;;;;;;;15.10;11.13;;;7.60;99.90;;;;;;4922448;29;23966;-63
2023/11/12 06:31:00;;;;;;;14.27;11.47;;;7.60;99.90;;;;;;4921224;29;21212;-63
2023/11/12 06:33:28;;;;;;;12.90;10.93;;;7.60;99.90;;;;;;4921911;28;20519;-63
2023/11/12 06:35:56;;;;;;;12.73;11.40;;;7.60;99.90;;;;;;4917360;29;20498;-63
2023/11/12 06:38:24;;;;;;;14.03;11.80;;;7.60;99.90;;;;;;4916628;29;20511;-63
2023/11/12 06:40:53;;;;;;;15.63;12.53;;;7.60;99.90;;;;;;4914566;29;20473;-64
2023/11/12 06:43:22;;;;;;;14.07;12.53;;;7.60;99.90;;;;;;4921666;28;20487;-63
2023/11/12 06:45:50;;;;;;;16.93;12.27;;;7.60;99.90;;;;;;4920758;29;20924;-64
2023/11/12 06:48:18;;;;;;;13.37;11.77;;;7.60;99.90;;;;;;4918264;29;20476;-63
2023/11/12 06:50:47;;;;;;;14.83;11.13;;;7.60;99.90;;;;;;4912878;29;20472;-64
2023/11/12 06:53:15;;;;;;;14.23;12.33;;;7.60;99.90;;;;;;4919927;28;20487;-64
2023/11/12 06:55:43;;;;;;;14.97;13.23;;;7.60;99.90;;;;;;4910436;29;20535;-63
2023/11/12 06:58:11;;;;;;;14.27;12.77;;;7.60;99.90;;;;;;4920000;29;20480;-64
2023/11/12 07:00:41;;;;;;;13.60;12.20;;;7.60;99.90;;;;;;4923026;29;20482;-64
2023/11/12 07:03:09;;;;;;;15.13;12.43;;;7.60;99.90;;;;;;4911795;28;20480;-64
2023/11/12 07:05:37;;;;;;;16.90;11.83;;;7.60;99.90;;;;;;4919184;29;20630;-64
2023/11/12 07:08:06;;;;;;;14.63;12.80;;;7.60;99.90;;;;;;4916579;29;20508;-63
2023/11/12 07:10:34;;;;;;;15.40;12.60;;;7.60;99.90;;;;;;4919033;29;20556;-63
2023/11/12 07:13:02;;;;;;;15.10;12.40;;;7.60;99.90;;;;;;4916847;28;20479;-63
2023/11/12 07:15:30;;;;;;;13.67;12.13;;;7.60;99.90;;;;;;4917293;29;20614;-63
2023/11/12 07:17:59;;;;;;;18.13;13.23;;;7.60;99.90;;;;;;4913472;29;20487;-64
2023/11/12 07:20:32;;;;;;;16.73;13.57;;;7.60;99.90;;;;;;4914814;29;20511;-63
2023/11/12 07:23:00;;;;;;;16.50;13.43;;;7.60;99.90;;;;;;4917976;28;20537;-65
2023/11/12 07:25:28;;;;;;;17.03;13.90;;;7.70;99.90;;;;;;4916835;29;20886;-65
2023/11/12 07:27:56;;;;;;;16.80;13.63;;;7.60;99.90;;;;;;4916213;29;20947;-65
2023/11/12 07:30:24;;;;;;;16.70;12.77;;;7.60;99.90;;;;;;4921906;29;20870;-65
2023/11/12 07:32:52;;;;;;;15.10;13.13;;;7.60;99.90;;;;;;4917441;28;20472;-64
2023/11/12 07:35:22;;;;;;;15.67;13.00;;;7.60;99.90;;;;;;4903969;29;21141;-65
2023/11/12 07:37:50;;;;;;;15.57;13.23;;;7.60;99.90;;;;;;4916799;29;20994;-65
2023/11/12 07:40:18;;;;;;;20.20;15.67;;;7.70;99.90;;;;;;4913366;29;20483;-64
2023/11/12 07:42:46;;;;;;;17.60;14.60;;;7.70;99.90;;;;;;4917204;29;20501;-64
2023/11/12 07:45:15;;;;;;;17.00;14.73;;;7.70;99.90;;;;;;4908473;29;20595;-65
2023/11/12 07:47:52;;;;;;;19.10;14.33;;;7.70;99.90;;;;;;4915865;29;20570;-65
2023/11/12 07:50:22;;;;;;;16.90;14.60;;;7.70;99.90;;;;;;4901038;29;20515;-64
2023/11/12 07:52:50;;;;;;;20.60;14.47;;;7.70;99.90;;;;;;4901814;28;20544;-62
2023/11/12 07:55:18;;;;;;;17.30;14.60;;;7.70;99.90;;;;;;4906190;29;20494;-63
2023/11/12 07:57:47;;;;;;;19.17;14.53;;;7.70;99.90;;;;;;4906114;29;20472;-64
2023/11/12 08:00:16;;;;;;;17.20;14.40;;;7.70;99.90;;;;;;4905580;29;21032;-63
2023/11/12 08:02:47;;;;;;;18.63;14.80;;;7.70;99.90;;;;;;4903441;29;20511;-63
2023/11/12 08:05:15;;;;;;;17.07;15.10;;;7.70;99.90;;;;;;4909589;29;20494;-63
2023/11/12 08:07:44;;;;;;;21.00;15.40;;;7.80;99.90;;;;;;4917278;29;20871;-63
2023/11/12 08:10:13;;;;;;;18.60;15.23;;;7.80;99.90;;;;;;4915992;29;20555;-63
2023/11/12 08:12:41;;;;;;;19.20;15.10;;;7.80;99.90;;;;;;4915122;29;20630;-63
2023/11/12 08:15:13;;;;;;;18.83;15.53;;;7.80;99.90;;;;;;4907014;28;21363;-63
2023/11/12 08:17:42;;;;;;;19.40;15.30;;;7.80;99.90;;;;;;4903201;29;20557;-63
2023/11/12 08:20:11;;;;;;;20.10;15.83;;;7.80;99.90;;;;;;4904213;29;20487;-63
2023/11/12 08:22:39;;;;;;;18.43;14.47;;;7.80;99.90;;;;;;4908223;29;21153;-63
2023/11/12 08:25:09;;;;;;;19.73;14.73;;;7.80;99.90;;;;;;4909751;28;20526;-63
2023/11/12 08:27:38;;;;;;;19.20;14.97;;;7.80;99.90;;;;;;4906048;29;20469;-63
2023/11/12 08:30:07;;;;;;;20.50;15.67;;;7.80;99.90;;;;;;4904149;29;20999;-63
2023/11/12 08:32:36;;;;;;;17.57;14.20;;;7.90;99.90;;;;;;4907482;29;20468;-63
2023/11/12 08:35:05;;;;;;;18.77;15.10;;;7.90;99.90;;;;;;4903256;28;20507;-64
2023/11/12 08:37:33;;;;;;;19.60;15.90;;;7.90;99.90;;;;;;4900771;29;20473;-63
2023/11/12 08:40:02;;;;;;;19.20;15.07;;;7.90;99.90;;;;;;4899541;29;20489;-63
2023/11/12 08:42:32;;;;;;;20.10;15.43;;;7.80;99.90;;;;;;4900599;29;20468;-62
2023/11/12 08:45:00;;;;;;;18.33;14.60;;;7.80;99.90;;;;;;4895358;28;20496;-63
2023/11/12 08:47:28;;;;;;;19.53;16.20;;;7.80;99.90;;;;;;4909653;29;20521;-62
2023/11/12 08:49:56;;;;;;;21.43;15.17;;;7.80;99.90;;;;;;4904986;29;20480;-63
2023/11/12 08:52:24;;;;;;;20.20;15.00;;;7.80;99.90;;;;;;4901661;29;20829;-61
2023/11/12 08:54:52;;;;;;;19.23;15.57;;;7.80;99.90;;;;;;4903656;28;20528;-61
2023/11/12 08:57:21;;;;;;;20.30;15.77;;;7.80;99.90;;;;;;4906543;29;20472;-62
2023/11/12 08:59:52;;;;;;;19.10;15.10;;;7.80;99.90;;;;;;4907132;29;20481;-62
2023/11/12 09:02:20;;;;;;;22.57;14.80;;;7.80;99.90;;;;;;4910626;29;20566;-62
2023/11/12 09:04:48;;;;;;;23.57;15.43;;;7.80;99.90;;;;;;4906264;28;20508;-63
2023/11/12 09:07:16;;;;;;;17.90;14.47;;;7.80;99.90;;;;;;4912925;29;20520;-62
2023/11/12 09:09:44;;;;;;;18.90;13.83;;;7.80;99.90;;;;;;4910805;29;20619;-63
2023/11/12 09:12:12;;;;;;;17.27;13.70;;;7.80;99.90;;;;;;4912911;29;20500;-65
2023/11/12 09:14:40;;;;;;;20.10;14.60;;;7.80;99.90;;;;;;4912612;28;21105;-62
2023/11/12 09:17:10;;;;;;;17.10;13.63;;;7.80;99.90;;;;;;4916042;29;20880;-63
2023/11/12 09:19:38;;;;;;;17.60;13.33;;;8.00;99.90;;;;;;4913332;29;20506;-63
2023/11/12 09:22:08;;;;;;;14.50;12.30;;;8.00;99.90;;;;;;4914618;29;20502;-64
2023/11/12 09:24:36;;;;;;;16.17;12.57;;;8.00;99.90;;;;;;4916036;28;20543;-64
2023/11/12 09:27:11;;;;;;;19.57;13.47;;;8.00;99.90;;;;;;4912609;29;20586;-64
2023/11/12 09:29:39;;;;;;;15.97;12.57;;;8.10;99.90;;;;;;4913019;29;23306;-64
2023/11/12 09:32:07;;;;;;;21.30;13.40;;;8.00;99.90;;;;;;4912356;29;20476;-64
2023/11/12 09:34:36;;;;;;;19.00;13.03;;;8.00;99.90;;;;;;4913889;28;21071;-64
2023/11/12 09:37:04;;;;;;;17.10;12.70;;;7.90;99.90;;;;;;4911183;29;20504;-62
2023/11/12 09:39:36;;;;;;;15.60;13.97;;;7.90;99.90;;;;;;4911226;29;20507;-63
2023/11/12 09:42:06;;;;;;;15.50;12.20;;;8.00;99.90;;;;;;4915205;29;21011;-63
2023/11/12 09:44:38;;;;;;;13.50;10.63;;;8.00;99.90;;;;;;4914749;28;20940;-63
2023/11/12 09:47:17;;;;;;;15.80;11.70;;;8.00;99.90;;;;;;4917008;29;20556;-63
2023/11/12 09:49:47;;;;;;;14.73;12.20;;;8.00;99.90;;;;;;4916723;29;20471;-62
2023/11/12 09:52:15;;;;;;;14.07;11.97;;;8.10;99.90;;;;;;4917915;29;20500;-62
2023/11/12 09:54:46;;;;;;;15.90;12.43;;;8.10;99.90;;;;;;4920242;28;20603;-62
2023/11/12 09:57:14;;;;;;;14.07;11.97;;;8.10;99.90;;;;;;4914331;29;21074;-62
2023/11/12 09:59:42;;;;;;;14.07;12.10;;;8.10;99.90;;;;;;4916160;29;20511;-63
2023/11/12 10:02:10;;;;;;;15.40;12.20;;;8.20;99.90;;;;;;4918006;29;20928;-63
2023/11/12 10:04:43;;;;;;;17.10;13.00;;;8.20;99.90;;;;;;4919139;28;20492;-62
2023/11/12 10:07:15;;;;;;;13.73;11.70;;;8.20;99.90;;;;;;4912796;29;20563;-62
2023/11/12 10:09:43;;;;;;;17.30;13.07;;;8.20;99.90;;;;;;4916686;29;20564;-62
2023/11/12 10:12:12;;;;;;;16.10;12.40;;;8.20;99.90;;;;;;4916399;29;20938;-62
2023/11/12 10:14:41;;;;;;;15.87;12.37;;;8.20;99.90;;;;;;4911206;28;21057;-62
2023/11/12 10:17:11;;;;;;;15.80;13.00;;;8.20;99.90;;;;;;4919829;29;20511;-63
2023/11/12 10:19:39;;;;;;;17.93;12.17;;;8.20;99.90;;;;;;4919653;29;20586;-63
2023/11/12 10:22:09;;;;;;;16.30;13.20;;;8.10;99.90;;;;;;4918111;29;20603;-63
2023/11/12 10:24:48;;;;;;;15.47;13.13;;;8.10;99.90;;;;;;4920525;28;20511;-63
2023/11/12 10:27:16;;;;;;;15.73;12.20;;;8.20;99.90;;;;;;4913111;29;20560;-63
2023/11/12 10:29:44;;;;;;;15.50;12.23;;;8.20;99.90;;;;;;4911217;29;20476;-62
2023/11/12 10:32:25;;;;;;;14.13;12.30;;;8.20;99.90;;;;;;4917270;29;20613;-63
2023/11/12 10:34:55;;;;;;;17.20;12.00;;;8.10;99.90;;;;;;4918199;28;20615;-62
2023/11/12 10:37:23;;;;;;;13.20;11.47;;;8.20;99.90;;;;;;4908579;29;20563;-63
2023/11/12 10:39:53;;;;;;;12.80;11.17;;;8.30;99.90;;;;;;4914892;29;20584;-63
2023/11/12 10:42:24;;;;;;;15.23;11.00;;;8.40;99.90;;;;;;4910131;29;20981;-65
2023/11/12 10:44:55;;;;;;;16.50;12.77;;;8.40;99.90;;;;;;4909424;28;20940;-62
2023/11/12 10:47:26;;;;;;;15.30;12.23;;;8.40;99.90;;;;;;4916090;29;20488;-62
2023/11/12 10:49:54;;;;;;;15.53;12.90;;;8.50;99.90;;;;;;4913998;29;20487;-62
2023/11/12 10:52:24;;;;;;;14.97;12.40;;;8.50;99.90;;;;;;4912043;29;20490;-63
2023/11/12 10:54:57;;;;;;;14.00;11.47;;;8.50;99.90;;;;;;4918520;28;20524;-62
2023/11/12 10:57:27;;;;;;;12.80;11.33;;;8.50;99.90;;;;;;4918356;29;21001;-63
2023/11/12 10:59:55;;;;;;;15.77;12.70;;;8.50;99.90;;;;;;4918286;29;20515;-63
2023/11/12 11:02:28;;;;;;;16.13;13.47;;;8.50;99.90;;;;;;4911261;29;20476;-63
2023/11/12 11:04:57;;;;;;;13.57;12.07;;;8.50;99.90;;;;;;4913687;28;20493;-63
2023/11/12 11:07:25;;;;;;;16.23;12.97;;;8.50;99.90;;;;;;4911259;29;20523;-62
2023/11/12 11:09:56;;;;;;;16.10;13.30;;;8.50;99.90;;;;;;4920286;29;20943;-63
2023/11/12 11:12:25;;;;;;;14.97;12.60;;;8.50;99.90;;;;;;4914270;29;20962;-63
2023/11/12 11:14:53;;;;;;;14.30;12.80;;;8.50;99.90;;;;;;4913807;28;21003;-63
2023/11/12 11:17:37;;;;;;;17.00;12.70;;;8.50;99.90;;;;;;4913711;29;21028;-63
2023/11/12 11:20:06;;;;;;;13.67;11.90;;;8.50;99.90;;;;;;4918481;29;20477;-63
2023/11/12 11:22:34;;;;;;;15.27;12.90;;;8.50;99.90;;;;;;4917532;29;20477;-62
2023/11/12 11:25:26;;;;;;;16.80;11.77;;;8.50;99.90;;;;;;4916651;28;20499;-63
2023/11/12 11:28:19;;;;;;;14.67;12.10;;;8.50;99.90;;;;;;4918477;29;20584;-62
2023/11/12 11:31:11;;;;;;;13.83;11.43;;;8.50;99.90;;;;;;4916252;29;20480;-63
2023/11/12 11:33:50;;;;;;;15.80;12.53;;;8.50;99.90;;;;;;4911615;28;20932;-62
2023/11/12 11:36:22;;;;;;;14.03;11.60;;;8.60;99.90;;;;;;4895470;29;20479;-62
2023/11/12 11:39:23;;;;;;;13.57;10.97;;;8.60;99.90;;;;;;4906915;29;20492;-62
2023/11/12 11:42:18;;;;;;;15.13;12.03;;;8.80;99.90;;;;;;4910713;29;20475;-62
2023/11/12 11:44:52;;;;;;;13.67;11.47;;;8.90;99.90;;;;;;4908791;28;20606;-63
2023/11/12 11:47:26;;;;;;;14.17;11.10;;;8.90;99.90;;;;;;4904351;29;20481;-62
2023/11/12 11:50:31;;;;;;;14.57;11.27;;;8.90;99.90;;;;;;4907906;29;20486;-61
2023/11/12 11:53:14;;;;;;;15.33;11.00;;;9.00;99.90;;;;;;4905502;28;20515;-63
2023/11/12 11:55:48;;;;;;;12.33;10.17;;;9.20;99.90;;;;;;4909339;29;20593;-61
2023/11/12 11:58:20;;;;;;;14.00;11.07;;;9.40;99.90;;;;;;4905433;29;20499;-61
2023/11/12 12:00:58;;;;;;;11.50;10.30;;;9.60;99.90;;;;;;4910651;29;21826;-62
2023/11/12 12:03:27;;;;;;;12.57;10.43;;;9.90;99.90;;;;;;4902659;28;20598;-63
2023/11/12 12:05:57;;;;;;;12.27;10.97;;;9.90;99.90;;;;;;4909864;29;20524;-65
2023/11/12 12:08:25;;;;;;;14.40;10.77;;;9.70;99.90;;;;;;4903549;29;20989;-65
2023/11/12 12:10:53;;;;;;;14.80;10.20;;;9.60;99.90;;;;;;4908094;29;20539;-65
2023/11/12 12:13:23;;;;;;;11.13;9.90;;;9.40;99.90;;;;;;4908228;28;20563;-63
2023/11/12 12:15:52;;;;;;;15.20;11.03;;;9.40;99.90;;;;;;4911127;29;20479;-62
2023/11/12 12:18:23;;;;;;;13.33;11.03;;;9.30;99.90;;;;;;4910591;29;20487;-66
2023/11/12 12:20:53;;;;;;;12.57;11.27;;;9.20;99.90;;;;;;4907446;29;20540;-63
2023/11/12 12:23:24;;;;;;;13.20;11.70;;;9.20;99.90;;;;;;4908110;28;20543;-64
2023/11/12 12:25:54;;;;;;;12.20;10.57;;;9.20;99.90;;;;;;4908678;29;20978;-63
2023/11/12 12:28:30;;;;;;;13.83;11.03;;;9.10;99.90;;;;;;4903772;29;20718;-62
2023/11/12 12:30:58;;;;;;;12.57;10.20;;;9.00;99.90;;;;;;4907843;29;20997;-63
2023/11/12 12:33:26;;;;;;;12.03;10.83;;;9.00;99.90;;;;;;4899846;28;20496;-63
2023/11/12 12:35:58;;;;;;;12.67;9.70;;;9.00;99.90;;;;;;4906312;29;20811;-63
2023/11/12 12:38:26;;;;;;;11.67;10.10;;;9.10;99.90;;;;;;4907198;29;20499;-63
2023/11/12 12:41:01;;;;;;;11.70;9.90;;;9.20;99.90;;;;;;4913919;29;20579;-63
2023/11/12 12:43:45;;;;;;;12.73;10.40;;;9.20;99.90;;;;;;4910657;28;20507;-63
2023/11/12 12:46:13;;;;;;;14.20;11.30;;;9.20;99.90;;;;;;4911226;29;20505;-65
2023/11/12 12:48:51;;;;;;;12.80;10.40;;;9.20;99.90;;;;;;4909936;29;20567;-64
2023/11/12 12:51:19;;;;;;;13.83;12.30;;;9.20;99.90;;;;;;4911282;29;20474;-63